Time;durP1;ratioP1;P1;durP2;ratioP2;P2;SDS_P1;SDS_P2;PMS_P1;PMS_P2;Temp;Humidity;BMP_temperature;BMP_pressure;BME280_temperature;BME280_humidity;BME280_pressure;Samples;Min_cycle;Max_cycle;Signal;HPM_P1;HPM_P2
2022/12/09 00:01:58;;;;;;;28.67;11.68;;;-1.20;99.90;;;;;;5051704;28;20540;-73
2022/12/09 00:04:24;;;;;;;29.38;11.00;;;-1.20;99.90;;;;;;5056040;28;20127;-73
2022/12/09 00:06:49;;;;;;;27.13;10.38;;;-1.20;99.90;;;;;;5066784;28;20021;-73
2022/12/09 00:09:15;;;;;;;29.30;11.32;;;-1.10;99.90;;;;;;5064835;28;20420;-74
2022/12/09 00:11:41;;;;;;;29.02;11.43;;;-1.10;99.90;;;;;;5065102;28;20321;-73
2022/12/09 00:14:10;;;;;;;33.10;11.50;;;-1.00;99.90;;;;;;5066482;28;20032;-73
2022/12/09 00:16:36;;;;;;;17.90;9.93;;;-1.00;99.90;;;;;;5065100;28;20206;-73
2022/12/09 00:19:02;;;;;;;23.30;11.98;;;-1.00;99.90;;;;;;5066999;28;20074;-73
2022/12/09 00:21:31;;;;;;;21.60;9.50;;;-1.00;99.90;;;;;;5064694;28;20048;-73
2022/12/09 00:23:58;;;;;;;28.05;13.63;;;-1.00;99.90;;;;;;5065888;28;20046;-73
2022/12/09 00:26:26;;;;;;;26.33;12.40;;;0.00;99.90;;;;;;5066451;28;20020;-74
2022/12/09 00:28:52;;;;;;;27.77;13.15;;;-1.10;99.90;;;;;;5066476;28;20020;-73
2022/12/09 00:31:24;;;;;;;24.80;12.05;;;-1.10;99.90;;;;;;5066235;28;20457;-73
2022/12/09 00:33:51;;;;;;;26.75;10.68;;;-1.20;99.90;;;;;;5065416;28;20032;-73
2022/12/09 00:36:20;;;;;;;29.13;10.57;;;-1.20;99.90;;;;;;5065769;28;20033;-74
2022/12/09 00:38:46;;;;;;;29.55;12.10;;;-1.20;99.90;;;;;;5069771;28;20449;-74
2022/12/09 00:41:13;;;;;;;32.25;14.85;;;-1.20;99.90;;;;;;5069421;28;20033;-74
2022/12/09 00:43:40;;;;;;;22.35;11.75;;;-1.20;99.90;;;;;;5067451;28;20533;-74
2022/12/09 00:46:05;;;;;;;32.35;12.23;;;-1.20;99.90;;;;;;5067859;28;20032;-72
2022/12/09 00:48:38;;;;;;;30.95;14.02;;;-1.20;99.90;;;;;;5071130;28;20116;-75
2022/12/09 00:51:06;;;;;;;28.83;11.13;;;-1.20;99.90;;;;;;5069821;28;20036;-74
2022/12/09 00:53:32;;;;;;;29.52;13.13;;;-1.20;99.90;;;;;;5069069;28;20082;-75
2022/12/09 00:55:58;;;;;;;28.63;13.02;;;-1.20;99.90;;;;;;5067576;28;20036;-76
2022/12/09 00:58:24;;;;;;;25.67;12.57;;;-1.30;99.90;;;;;;5066267;28;20024;-76
2022/12/09 01:00:52;;;;;;;26.42;13.43;;;-1.30;99.90;;;;;;5069030;28;20025;-75
2022/12/09 01:03:18;;;;;;;26.00;11.85;;;-1.20;99.90;;;;;;5070991;28;20024;-75
2022/12/09 01:05:43;;;;;;;21.35;10.45;;;0.20;99.90;;;;;;5070512;28;20028;-75
2022/12/09 01:08:11;;;;;;;22.80;12.00;;;-1.30;99.90;;;;;;5069397;28;20028;-75
2022/12/09 01:10:38;;;;;;;27.02;12.18;;;-1.30;99.90;;;;;;5073924;28;20025;-75
2022/12/09 01:13:04;;;;;;;24.35;11.15;;;-1.30;99.90;;;;;;5070938;28;20024;-75
2022/12/09 01:15:30;;;;;;;25.25;9.57;;;-1.40;99.90;;;;;;5067203;28;20436;-75
2022/12/09 01:17:56;;;;;;;32.80;13.18;;;-1.30;99.90;;;;;;5067711;28;20024;-75
2022/12/09 01:20:21;;;;;;;32.65;11.75;;;-1.20;99.90;;;;;;5066624;28;20059;-75
2022/12/09 01:22:47;;;;;;;27.45;13.32;;;-1.20;99.90;;;;;;5067704;28;20482;-74
2022/12/09 01:25:13;;;;;;;27.75;10.70;;;0.90;99.90;;;;;;5067523;28;20490;-75
2022/12/09 01:27:39;;;;;;;32.70;12.50;;;-1.30;99.90;;;;;;5065070;28;20623;-76
2022/12/09 01:30:06;;;;;;;21.42;10.23;;;-1.30;99.90;;;;;;5047666;28;20583;-75
2022/12/09 01:32:32;;;;;;;24.92;10.48;;;-1.30;99.90;;;;;;5045341;28;20029;-73
2022/12/09 01:34:58;;;;;;;23.95;10.30;;;-1.20;99.90;;;;;;5046783;28;20047;-76
2022/12/09 01:37:23;;;;;;;23.83;11.10;;;0.40;99.90;;;;;;5045069;28;20059;-75
2022/12/09 01:39:49;;;;;;;26.52;11.77;;;-1.20;99.90;;;;;;5045944;28;20083;-75
2022/12/09 01:42:20;;;;;;;30.33;11.20;;;-1.20;99.90;;;;;;5051464;28;20484;-75
2022/12/09 01:45:29;;;;;;;24.25;9.65;;;-1.20;99.90;;;;;;5048630;28;20029;-76
2022/12/09 01:48:13;;;;;;;19.70;10.23;;;-1.20;99.90;;;;;;5070777;28;20433;-75
2022/12/09 01:51:03;;;;;;;23.88;10.85;;;-1.20;99.90;;;;;;5047992;28;20041;-74
2022/12/09 01:53:33;;;;;;;25.73;11.48;;;-1.30;99.90;;;;;;5067429;28;20489;-75
2022/12/09 01:56:03;;;;;;;30.48;13.48;;;-1.30;99.90;;;;;;5069208;28;20484;-75
2022/12/09 01:58:28;;;;;;;;;;;-1.30;99.90;;;;;;5070586;28;20123;-75
2022/12/09 02:00:54;;;;;;;35.50;12.45;;;-1.30;99.90;;;;;;5072430;28;19919;-75
2022/12/09 02:03:20;;;;;;;31.45;11.35;;;-1.30;99.90;;;;;;5059785;28;20035;-76
2022/12/09 02:05:47;;;;;;;27.17;10.00;;;-1.40;99.90;;;;;;5073851;28;20045;-76
2022/12/09 02:08:16;;;;;;;22.23;11.73;;;-1.40;99.90;;;;;;5076220;28;20017;-75
2022/12/09 02:11:12;;;;;;;24.83;10.02;;;-1.40;99.90;;;;;;5073411;28;20025;-76
2022/12/09 02:14:11;;;;;;;29.80;13.35;;;-1.40;99.90;;;;;;5072251;28;20499;-75
2022/12/09 02:16:54;;;;;;;28.85;13.50;;;-1.20;99.90;;;;;;5066502;28;20053;-75
2022/12/09 02:20:00;;;;;;;29.92;12.93;;;-1.20;99.90;;;;;;5068465;28;20028;-75
2022/12/09 02:22:46;;;;;;;25.10;12.55;;;-1.20;99.90;;;;;;5068829;28;20302;-75
2022/12/09 02:25:31;;;;;;;20.83;11.15;;;-1.20;99.90;;;;;;5074971;28;20021;-75
2022/12/09 02:28:09;;;;;;;30.20;12.07;;;-1.30;99.90;;;;;;5074955;28;20025;-75
2022/12/09 02:30:53;;;;;;;34.92;12.52;;;-1.20;99.90;;;;;;5069567;28;20058;-75
2022/12/09 02:33:19;;;;;;;28.20;12.05;;;-1.30;99.90;;;;;;5068566;28;20021;-75
2022/12/09 02:35:52;;;;;;;29.83;13.82;;;-1.20;99.90;;;;;;5075241;28;20290;-75
2022/12/09 02:38:27;;;;;;;21.52;10.82;;;-1.20;99.90;;;;;;5071918;28;20032;-76
2022/12/09 02:41:14;;;;;;;25.20;11.85;;;-1.10;99.90;;;;;;5071699;28;20039;-75
2022/12/09 02:43:45;;;;;;;19.88;9.27;;;-1.20;99.90;;;;;;5068527;28;20047;-75
2022/12/09 02:46:13;;;;;;;26.77;12.15;;;0.10;99.90;;;;;;5070231;28;20423;-75
2022/12/09 02:48:44;;;;;;;30.63;11.43;;;-1.10;99.90;;;;;;5068952;28;20477;-75
2022/12/09 02:51:13;;;;;;;21.58;11.18;;;-1.10;99.90;;;;;;5065920;28;20127;-76
2022/12/09 02:53:39;;;;;;;;;;;-0.20;99.90;;;;;;5070102;28;20020;-75
2022/12/09 02:56:06;;;;;;;23.83;11.25;;;-1.20;99.90;;;;;;5068902;28;20354;-76
2022/12/09 02:58:31;;;;;;;23.70;11.93;;;-1.10;99.90;;;;;;5068199;28;20044;-77
2022/12/09 03:00:57;;;;;;;30.63;12.45;;;-1.20;99.90;;;;;;5071344;28;20479;-76
2022/12/09 03:03:24;;;;;;;20.98;10.77;;;-1.20;99.90;;;;;;5070294;28;20071;-75
2022/12/09 03:06:08;;;;;;;23.42;10.65;;;-1.20;99.90;;;;;;5070034;28;20024;-76
2022/12/09 03:08:52;;;;;;;26.70;10.27;;;-1.10;99.90;;;;;;5067990;28;20381;-76
2022/12/09 03:11:23;;;;;;;25.05;11.23;;;-1.10;99.90;;;;;;5067829;28;20035;-76
2022/12/09 03:14:03;;;;;;;22.25;10.48;;;-0.70;99.90;;;;;;5067363;28;20032;-76
2022/12/09 03:16:40;;;;;;;27.35;12.30;;;-1.20;99.90;;;;;;5070343;28;20028;-76
2022/12/09 03:19:28;;;;;;;29.38;11.15;;;-1.20;99.90;;;;;;5070400;28;20029;-77
2022/12/09 03:21:58;;;;;;;21.85;11.25;;;-1.20;99.90;;;;;;5068401;28;20155;-76
2022/12/09 03:24:43;;;;;;;30.00;13.00;;;-1.00;99.90;;;;;;5068046;28;20076;-76
2022/12/09 03:27:14;;;;;;;26.95;13.75;;;-1.10;99.90;;;;;;5067780;28;20772;-75
2022/12/09 03:29:45;;;;;;;30.85;10.73;;;-1.10;99.90;;;;;;5068160;28;20043;-76
2022/12/09 03:32:14;;;;;;;31.92;11.52;;;0.80;99.90;;;;;;5069727;28;20067;-76
2022/12/09 03:34:43;;;;;;;32.72;13.45;;;1.80;99.90;;;;;;5073388;28;20056;-75
2022/12/09 03:37:10;;;;;;;25.48;12.27;;;-1.10;99.90;;;;;;5070599;28;20063;-76
2022/12/09 03:39:37;;;;;;;32.08;14.23;;;0.90;99.90;;;;;;5065735;28;20029;-76
2022/12/09 03:42:21;;;;;;;30.23;12.05;;;0.30;99.90;;;;;;5047487;28;20283;-76
2022/12/09 03:45:00;;;;;;;22.95;13.10;;;-1.20;99.90;;;;;;5049335;28;20029;-76
2022/12/09 03:47:26;;;;;;;27.58;12.95;;;-1.30;99.90;;;;;;5047250;28;20017;-76
2022/12/09 03:49:51;;;;;;;27.92;12.65;;;-1.30;99.90;;;;;;5048329;28;20055;-75
2022/12/09 03:52:31;;;;;;;24.13;10.93;;;-1.20;99.90;;;;;;5048503;28;20057;-75
2022/12/09 03:55:01;;;;;;;28.95;13.07;;;-1.20;99.90;;;;;;5045667;28;20087;-76
2022/12/09 03:57:27;;;;;;;30.33;13.30;;;-1.20;99.90;;;;;;5047638;28;20776;-75
2022/12/09 03:59:58;;;;;;;36.33;14.75;;;0.20;99.90;;;;;;5047897;28;20025;-76
2022/12/09 04:02:24;;;;;;;32.78;16.05;;;-1.10;99.90;;;;;;5051081;28;20060;-75
2022/12/09 04:04:50;;;;;;;39.28;16.40;;;-1.10;99.90;;;;;;5051238;28;20057;-75
2022/12/09 04:07:16;;;;;;;27.80;13.95;;;-1.10;99.90;;;;;;5051422;28;20017;-75
2022/12/09 04:09:42;;;;;;;34.33;15.25;;;-0.10;99.90;;;;;;5053092;28;20104;-76
2022/12/09 04:12:08;;;;;;;32.75;13.10;;;1.90;99.90;;;;;;5065901;28;20119;-73
2022/12/09 04:14:33;;;;;;;28.33;13.00;;;1.60;99.90;;;;;;5050896;28;20040;-75
2022/12/09 04:16:59;;;;;;;28.00;12.52;;;1.80;99.90;;;;;;5055937;28;20115;-74
2022/12/09 04:19:25;;;;;;;26.15;11.65;;;-1.20;99.90;;;;;;5069786;28;20020;-76
2022/12/09 04:21:50;;;;;;;29.20;13.10;;;-1.20;99.90;;;;;;5072042;28;20049;-74
2022/12/09 04:24:16;;;;;;;35.03;13.32;;;-1.20;99.90;;;;;;5072841;28;20021;-74
2022/12/09 04:26:42;;;;;;;30.83;13.75;;;-1.30;99.90;;;;;;5072690;28;20035;-74
2022/12/09 04:29:10;;;;;;;31.88;14.38;;;-1.30;99.90;;;;;;5073497;28;20031;-74
2022/12/09 04:31:35;;;;;;;35.58;13.73;;;-1.30;99.90;;;;;;5071948;28;20094;-73
2022/12/09 04:34:01;;;;;;;34.55;15.75;;;-1.30;99.90;;;;;;5069688;28;20278;-73
2022/12/09 04:36:27;;;;;;;31.38;14.65;;;-1.10;99.90;;;;;;5067487;28;20033;-73
2022/12/09 04:38:52;;;;;;;27.80;14.13;;;-1.10;99.90;;;;;;5069137;28;20025;-73
2022/12/09 04:41:18;;;;;;;28.23;11.02;;;-1.20;99.90;;;;;;5068052;28;20029;-72
2022/12/09 04:43:44;;;;;;;32.33;15.77;;;-0.40;99.90;;;;;;5066889;28;20039;-72
2022/12/09 04:46:15;;;;;;;29.90;11.23;;;-2.50;99.90;;;;;;5056456;28;20421;-73
2022/12/09 04:48:41;;;;;;;29.10;12.68;;;-0.50;99.90;;;;;;5070679;28;20406;-72
2022/12/09 04:51:12;;;;;;;27.33;11.48;;;-1.40;99.90;;;;;;5070733;28;20108;-72
2022/12/09 04:53:39;;;;;;;41.08;15.52;;;-1.40;99.90;;;;;;5070746;28;20029;-72
2022/12/09 04:56:17;;;;;;;28.60;13.05;;;-1.30;99.90;;;;;;5070337;28;20038;-72
2022/12/09 04:58:43;;;;;;;33.70;12.10;;;-1.40;99.90;;;;;;5069763;28;20117;-72
2022/12/09 05:01:12;;;;;;;24.10;12.13;;;-1.30;99.90;;;;;;5070702;28;20435;-73
2022/12/09 05:03:38;;;;;;;24.77;11.47;;;-1.20;99.90;;;;;;5071231;28;20017;-73
2022/12/09 05:06:09;;;;;;;23.65;11.25;;;-1.20;99.90;;;;;;5070458;28;20031;-73
2022/12/09 05:08:35;;;;;;;32.53;12.13;;;-1.20;99.90;;;;;;5060851;28;20075;-72
2022/12/09 05:11:01;;;;;;;28.65;11.93;;;-1.30;99.90;;;;;;5050553;28;20036;-73
2022/12/09 05:13:26;;;;;;;26.38;11.13;;;-1.30;99.90;;;;;;5050549;28;20448;-73
2022/12/09 05:16:04;;;;;;;26.38;11.27;;;-1.30;99.90;;;;;;5051279;28;20033;-73
2022/12/09 05:18:29;;;;;;;28.13;10.57;;;-1.30;99.90;;;;;;5050205;28;20021;-73
2022/12/09 05:20:55;;;;;;;24.90;12.50;;;-1.30;99.90;;;;;;5047975;28;20432;-72
2022/12/09 05:23:21;;;;;;;26.42;10.30;;;-1.20;99.90;;;;;;5050634;28;20393;-72
2022/12/09 05:25:47;;;;;;;26.77;10.52;;;-1.10;99.90;;;;;;5051112;28;20056;-73
2022/12/09 05:28:12;;;;;;;25.20;12.20;;;-1.20;99.90;;;;;;5052611;28;20021;-74
2022/12/09 05:30:38;;;;;;;23.67;10.40;;;-1.10;99.90;;;;;;5052102;28;20025;-74
2022/12/09 05:33:04;;;;;;;27.65;11.88;;;-1.20;99.90;;;;;;5056175;28;20343;-73
2022/12/09 05:35:30;;;;;;;36.30;15.35;;;-1.20;99.90;;;;;;5055017;28;20041;-73
2022/12/09 05:37:55;;;;;;;26.02;12.00;;;-1.30;99.90;;;;;;5057755;28;20021;-74
2022/12/09 05:40:21;;;;;;;35.75;14.18;;;-1.30;99.90;;;;;;5057185;28;20580;-74
2022/12/09 05:42:47;;;;;;;35.67;14.35;;;-1.30;99.90;;;;;;5057575;28;20020;-75
2022/12/09 05:45:12;;;;;;;24.98;14.70;;;-1.20;99.90;;;;;;5057129;28;20033;-74
2022/12/09 05:47:38;;;;;;;35.78;13.10;;;-1.20;99.90;;;;;;5058539;28;20040;-74
2022/12/09 05:50:07;;;;;;;43.35;18.88;;;-1.20;99.90;;;;;;5058269;28;20049;-73
2022/12/09 05:52:36;;;;;;;59.97;24.15;;;-1.20;99.90;;;;;;5057630;28;20045;-73
2022/12/09 05:55:09;;;;;;;37.35;15.65;;;-1.30;99.90;;;;;;5052148;28;20412;-73
2022/12/09 05:57:35;;;;;;;26.90;11.60;;;-1.30;99.90;;;;;;5053049;28;20205;-73
2022/12/09 06:00:03;;;;;;;32.63;13.93;;;-1.40;99.90;;;;;;5052849;28;20056;-73
2022/12/09 06:02:29;;;;;;;27.00;11.05;;;-1.30;99.90;;;;;;5054315;28;20017;-74
2022/12/09 06:04:55;;;;;;;31.20;16.35;;;-1.30;99.90;;;;;;5055369;28;20086;-74
2022/12/09 06:07:21;;;;;;;33.35;11.35;;;-1.20;99.90;;;;;;5057062;28;20029;-73
2022/12/09 06:09:46;;;;;;;23.48;10.88;;;-1.30;99.90;;;;;;5056631;28;20075;-73
2022/12/09 06:12:12;;;;;;;23.88;10.20;;;-1.30;99.90;;;;;;5055214;28;20070;-74
2022/12/09 06:14:37;;;;;;;28.45;10.85;;;-1.30;99.90;;;;;;5056640;28;20028;-74
2022/12/09 06:17:03;;;;;;;23.33;10.63;;;-1.30;99.90;;;;;;5056545;28;20029;-73
2022/12/09 06:19:29;;;;;;;22.70;12.77;;;-1.30;99.90;;;;;;5055713;28;20031;-74
2022/12/09 06:21:54;;;;;;;23.25;11.32;;;-1.30;99.90;;;;;;5054866;28;20080;-73
2022/12/09 06:24:20;;;;;;;26.60;12.63;;;-1.30;99.90;;;;;;5056297;28;20052;-75
2022/12/09 06:26:46;;;;;;;24.70;11.88;;;-0.40;99.90;;;;;;5056015;28;20029;-74
2022/12/09 06:29:12;;;;;;;29.65;12.07;;;-1.30;99.90;;;;;;5055707;28;20029;-73
2022/12/09 06:31:37;;;;;;;23.02;11.13;;;-1.40;99.90;;;;;;5055113;28;20035;-73
2022/12/09 06:34:03;;;;;;;23.48;10.23;;;-1.40;99.90;;;;;;5053535;28;20021;-74
2022/12/09 06:36:30;;;;;;;22.55;11.50;;;0.00;99.90;;;;;;5059864;28;20048;-73
2022/12/09 06:38:58;;;;;;;24.42;12.95;;;-1.30;99.90;;;;;;5064958;28;20335;-73
2022/12/09 06:41:24;;;;;;;32.63;13.27;;;0.80;99.90;;;;;;5060060;28;20048;-74
2022/12/09 06:43:49;;;;;;;27.15;10.57;;;-1.20;99.90;;;;;;5055322;28;20083;-73
2022/12/09 06:46:18;;;;;;;26.88;11.38;;;-1.10;99.90;;;;;;5056457;28;20320;-73
2022/12/09 06:48:44;;;;;;;36.05;13.32;;;-1.20;99.90;;;;;;5051164;28;20013;-73
2022/12/09 06:51:10;;;;;;;29.58;11.85;;;-1.20;99.90;;;;;;5048870;28;20025;-74
2022/12/09 06:53:35;;;;;;;26.77;12.93;;;-1.30;99.90;;;;;;5051596;28;20021;-73
2022/12/09 06:56:06;;;;;;;25.73;12.20;;;-1.40;99.90;;;;;;5053109;28;20405;-73
2022/12/09 06:58:32;;;;;;;29.70;14.07;;;-1.40;99.90;;;;;;5057629;28;20033;-74
2022/12/09 07:01:12;;;;;;;22.83;11.32;;;-1.30;99.90;;;;;;5059613;28;20032;-73
2022/12/09 07:03:39;;;;;;;23.65;12.05;;;-1.30;99.90;;;;;;5060773;28;20103;-74
2022/12/09 07:06:06;;;;;;;21.48;11.27;;;-1.20;99.90;;;;;;5062215;28;20032;-73
2022/12/09 07:08:32;;;;;;;25.40;10.10;;;-1.30;99.90;;;;;;5059258;28;20025;-73
2022/12/09 07:10:57;;;;;;;29.25;12.10;;;-1.30;99.90;;;;;;5062047;28;20029;-73
2022/12/09 07:13:23;;;;;;;23.33;10.68;;;-1.20;99.90;;;;;;5058456;28;20226;-74
2022/12/09 07:15:49;;;;;;;20.27;10.95;;;-1.20;99.90;;;;;;5055374;28;20037;-73
2022/12/09 07:18:15;;;;;;;26.27;11.68;;;0.00;99.90;;;;;;5054470;28;20474;-74
2022/12/09 07:20:40;;;;;;;24.73;9.20;;;-1.10;99.90;;;;;;5058712;28;20029;-74
2022/12/09 07:23:06;;;;;;;21.40;10.35;;;-1.10;99.90;;;;;;5058799;28;20052;-75
2022/12/09 07:25:31;;;;;;;24.30;11.00;;;-1.10;99.90;;;;;;5052631;28;20079;-73
2022/12/09 07:27:57;;;;;;;35.65;14.73;;;-1.10;99.90;;;;;;5047330;28;20021;-74
2022/12/09 07:30:23;;;;;;;20.02;8.45;;;-1.10;99.90;;;;;;5050512;28;20034;-73
2022/12/09 07:32:48;;;;;;;26.73;13.32;;;-1.20;99.90;;;;;;5050678;28;20116;-74
2022/12/09 07:35:14;;;;;;;36.20;14.82;;;0.30;99.90;;;;;;5062322;28;20067;-74
2022/12/09 07:37:40;;;;;;;20.27;10.00;;;-1.10;99.90;;;;;;5052963;28;20025;-75
2022/12/09 07:40:06;;;;;;;22.17;9.70;;;-1.10;99.90;;;;;;5059619;28;20314;-74
2022/12/09 07:42:31;;;;;;;22.80;10.77;;;-1.10;99.90;;;;;;5070549;28;20028;-76
2022/12/09 07:44:57;;;;;;;24.33;11.52;;;-1.10;99.90;;;;;;5073567;28;20035;-75
2022/12/09 07:47:23;;;;;;;24.08;11.77;;;-1.00;99.90;;;;;;5073637;28;20024;-75
2022/12/09 07:49:48;;;;;;;24.63;10.65;;;-1.00;99.90;;;;;;5069484;28;20510;-75
2022/12/09 07:52:14;;;;;;;16.48;9.25;;;-1.00;99.90;;;;;;5062760;28;20032;-75
2022/12/09 07:54:39;;;;;;;22.23;10.18;;;-1.00;99.90;;;;;;5048131;28;20029;-79
2022/12/09 07:57:05;;;;;;;20.58;10.13;;;-1.00;99.90;;;;;;5049866;28;20456;-76
2022/12/09 07:59:31;;;;;;;20.95;10.93;;;-1.00;99.90;;;;;;5047926;28;20075;-75
2022/12/09 08:01:56;;;;;;;20.88;9.82;;;-1.00;99.90;;;;;;5048943;28;20041;-75
2022/12/09 08:04:22;;;;;;;24.08;10.60;;;-1.00;99.90;;;;;;5048623;28;20032;-74
2022/12/09 08:06:48;;;;;;;22.40;10.63;;;1.00;99.90;;;;;;5048343;28;20426;-75
2022/12/09 08:09:13;;;;;;;20.17;8.80;;;-1.00;99.90;;;;;;5045939;28;20043;-76
2022/12/09 08:11:39;;;;;;;25.85;9.85;;;-1.00;99.90;;;;;;5047854;28;20043;-75
2022/12/09 08:14:07;;;;;;;24.13;10.20;;;-0.90;99.90;;;;;;5051703;28;20033;-75
2022/12/09 08:16:33;;;;;;;20.63;10.52;;;-1.00;99.90;;;;;;5051192;28;20538;-75
2022/12/09 08:18:59;;;;;;;32.20;10.00;;;-1.00;99.90;;;;;;5050927;28;20056;-75
2022/12/09 08:21:30;;;;;;;25.95;11.13;;;-0.90;99.90;;;;;;5050964;28;20036;-74
2022/12/09 08:23:58;;;;;;;21.77;9.43;;;-1.00;99.90;;;;;;5052710;28;20547;-82
2022/12/09 08:26:26;;;;;;;26.20;11.65;;;-1.00;99.90;;;;;;5051741;28;20039;-75
2022/12/09 08:28:52;;;;;;;21.65;9.23;;;-0.90;99.90;;;;;;5056680;28;20055;-75
2022/12/09 08:31:20;;;;;;;29.75;13.27;;;-0.80;99.90;;;;;;5067811;28;20060;-78
2022/12/09 08:33:46;;;;;;;21.77;9.77;;;-0.80;99.90;;;;;;5068319;28;20064;-76
2022/12/09 08:36:18;;;;;;;17.38;9.63;;;-0.80;99.90;;;;;;5075716;28;20094;-79
2022/12/09 08:38:44;;;;;;;17.25;8.52;;;-0.80;99.90;;;;;;5071317;28;20025;-74
2022/12/09 08:41:10;;;;;;;20.38;8.88;;;0.90;99.90;;;;;;5070167;28;20025;-75
2022/12/09 08:43:36;;;;;;;22.38;9.90;;;-0.80;99.90;;;;;;5071692;28;20412;-78
2022/12/09 08:46:02;;;;;;;22.95;8.15;;;-0.70;99.90;;;;;;5073369;28;20024;-74
2022/12/09 08:48:27;;;;;;;13.82;7.88;;;-0.80;99.90;;;;;;5065887;28;20028;-74
2022/12/09 08:50:53;;;;;;;22.95;11.90;;;0.10;99.90;;;;;;5068656;28;21042;-74
2022/12/09 08:53:18;;;;;;;21.42;10.02;;;-0.10;99.90;;;;;;5068380;28;20328;-78
2022/12/09 08:55:44;;;;;;;17.40;9.18;;;-0.60;99.90;;;;;;5067214;28;20102;-75
2022/12/09 08:58:10;;;;;;;16.55;9.75;;;-0.50;99.90;;;;;;5066376;28;20485;-74
2022/12/09 09:00:36;;;;;;;17.17;9.27;;;1.40;99.90;;;;;;5067912;28;20028;-74
2022/12/09 09:03:03;;;;;;;16.00;9.50;;;2.90;99.90;;;;;;5066671;28;20017;-75
2022/12/09 09:05:28;;;;;;;18.20;8.50;;;-0.30;99.90;;;;;;5067168;28;20032;-73
2022/12/09 09:07:54;;;;;;;19.90;9.40;;;-0.40;99.90;;;;;;5069799;28;20024;-75
2022/12/09 09:10:20;;;;;;;17.88;9.45;;;-0.40;99.90;;;;;;5070659;28;20437;-75
2022/12/09 09:12:45;;;;;;;17.60;9.88;;;-0.50;99.90;;;;;;5069012;28;20127;-75
2022/12/09 09:15:11;;;;;;;19.52;9.23;;;0.70;99.90;;;;;;5067029;28;20086;-75
2022/12/09 09:17:36;;;;;;;30.63;11.38;;;0.60;99.90;;;;;;5050752;28;20018;-74
2022/12/09 09:20:02;;;;;;;15.88;8.20;;;-0.40;99.90;;;;;;5051047;28;20111;-74
2022/12/09 09:22:28;;;;;;;17.63;8.50;;;-0.40;99.90;;;;;;5050237;28;20136;-74
2022/12/09 09:24:54;;;;;;;16.13;7.03;;;0.30;99.90;;;;;;5049924;28;20452;-75
2022/12/09 09:27:20;;;;;;;16.95;7.40;;;-0.50;99.90;;;;;;5054414;28;20309;-74
2022/12/09 09:29:45;;;;;;;21.92;6.40;;;0.90;99.90;;;;;;5072973;28;20293;-74
2022/12/09 09:32:11;;;;;;;21.02;9.05;;;2.00;99.90;;;;;;5075573;28;20040;-79
2022/12/09 09:34:37;;;;;;;18.85;9.00;;;2.40;99.90;;;;;;5064796;28;20021;-82
2022/12/09 09:37:02;;;;;;;21.02;10.82;;;1.20;99.90;;;;;;5056702;28;20611;-75
2022/12/09 09:39:28;;;;;;;18.38;7.18;;;0.40;99.90;;;;;;5048966;28;20029;-74
2022/12/09 09:42:00;;;;;;;20.17;9.00;;;1.00;99.90;;;;;;5049089;28;20063;-74
2022/12/09 09:44:34;;;;;;;24.27;10.02;;;0.50;99.90;;;;;;5048426;28;20190;-74
2022/12/09 09:47:02;;;;;;;16.40;7.90;;;-0.40;99.90;;;;;;5047590;28;20021;-75
2022/12/09 09:49:28;;;;;;;16.63;9.30;;;;;;;;;;5047746;28;20029;-74
2022/12/09 09:51:54;;;;;;;14.23;6.88;;;-0.50;99.90;;;;;;5049402;28;20536;-74
2022/12/09 09:54:20;;;;;;;17.88;8.15;;;-0.60;99.90;;;;;;5048517;28;20035;-74
2022/12/09 09:57:11;;;;;;;18.27;8.93;;;1.10;99.90;;;;;;5048500;28;20041;-74
2022/12/09 09:59:57;;;;;;;19.73;8.48;;;-0.60;99.90;;;;;;5049926;28;20021;-74
2022/12/09 10:02:28;;;;;;;17.25;7.95;;;-0.50;99.90;;;;;;5049637;28;20028;-75
2022/12/09 10:05:13;;;;;;;20.08;7.95;;;-0.30;99.90;;;;;;5048009;28;20120;-74
2022/12/09 10:07:45;;;;;;;15.82;7.65;;;-0.30;99.90;;;;;;5050717;28;20131;-75
2022/12/09 10:10:13;;;;;;;15.85;7.65;;;-0.20;99.90;;;;;;5049221;28;20094;-74
2022/12/09 10:12:53;;;;;;;23.37;10.33;;;-0.20;99.90;;;;;;5049532;28;20024;-74
2022/12/09 10:15:27;;;;;;;18.10;8.77;;;-0.20;99.90;;;;;;5049063;28;20303;-74
2022/12/09 10:18:03;;;;;;;17.98;9.32;;;-0.10;99.90;;;;;;5049503;28;20025;-74
2022/12/09 10:20:30;;;;;;;16.98;8.25;;;1.30;99.90;;;;;;5047606;28;20389;-74
2022/12/09 10:23:02;;;;;;;14.32;7.80;;;0.60;99.90;;;;;;5049195;28;20045;-74
2022/12/09 10:25:35;;;;;;;18.98;8.95;;;1.20;99.90;;;;;;5049358;28;20025;-74
2022/12/09 10:28:14;;;;;;;15.18;6.38;;;0.00;99.90;;;;;;5049582;28;20021;-74
2022/12/09 10:30:40;;;;;;;;;;;0.00;99.90;;;;;;5052319;28;20039;-74
2022/12/09 10:33:05;;;;;;;18.52;9.50;;;0.60;99.90;;;;;;5049911;28;19913;-74
2022/12/09 10:35:31;;;;;;;19.58;8.88;;;2.30;99.90;;;;;;5049925;28;20041;-74
2022/12/09 10:38:08;;;;;;;13.38;7.50;;;1.20;99.90;;;;;;5048269;28;20029;-74
2022/12/09 10:40:45;;;;;;;20.92;9.40;;;1.00;99.90;;;;;;5049214;28;20033;-74
2022/12/09 10:43:36;;;;;;;16.20;8.60;;;-0.10;99.90;;;;;;5049024;28;20063;-74
2022/12/09 10:46:08;;;;;;;17.20;7.60;;;0.00;99.90;;;;;;5050161;28;20025;-74
2022/12/09 10:48:43;;;;;;;16.00;7.95;;;0.20;99.90;;;;;;5048506;28;20385;-74
2022/12/09 10:51:18;;;;;;;18.70;7.70;;;0.20;99.90;;;;;;5053238;28;20029;-81
2022/12/09 10:54:04;;;;;;;22.77;8.05;;;0.30;99.90;;;;;;5049017;28;20049;-76
2022/12/09 10:56:58;;;;;;;15.10;7.28;;;0.20;99.90;;;;;;5050076;28;20037;-75
2022/12/09 10:59:28;;;;;;;20.25;9.73;;;1.40;99.90;;;;;;5054474;28;20083;-74
2022/12/09 11:01:57;;;;;;;23.42;10.07;;;1.60;99.90;;;;;;5055758;28;20028;-74
2022/12/09 11:04:31;;;;;;;18.87;9.57;;;0.30;99.90;;;;;;5056670;28;20021;-75
2022/12/09 11:07:09;;;;;;;22.00;11.10;;;0.40;99.90;;;;;;5055762;28;20329;-74
2022/12/09 11:09:40;;;;;;;18.50;9.30;;;0.20;99.90;;;;;;5056257;28;20032;-74
2022/12/09 11:12:15;;;;;;;18.55;10.95;;;0.00;99.90;;;;;;5052647;28;20025;-75
2022/12/09 11:14:53;;;;;;;17.90;9.60;;;0.00;99.90;;;;;;5054707;28;20263;-74
2022/12/09 11:17:23;;;;;;;16.48;9.07;;;-0.10;99.90;;;;;;5055833;28;20319;-74
2022/12/09 11:20:19;;;;;;;18.23;7.90;;;0.30;99.90;;;;;;5056738;28;20056;-74
2022/12/09 11:22:56;;;;;;;24.70;11.25;;;-0.20;99.90;;;;;;5054817;28;20444;-74
2022/12/09 11:25:25;;;;;;;25.88;11.90;;;-0.20;99.90;;;;;;5051109;28;20095;-73
2022/12/09 11:27:58;;;;;;;18.98;10.23;;;-0.10;99.90;;;;;;5051199;28;20655;-74
2022/12/09 11:30:28;;;;;;;19.73;9.52;;;0.00;99.90;;;;;;5059971;28;20048;-74
2022/12/09 11:33:12;;;;;;;23.15;10.57;;;0.20;99.90;;;;;;5079040;28;20207;-74
2022/12/09 11:35:37;;;;;;;24.38;10.50;;;0.00;99.90;;;;;;5061733;28;20316;-74
2022/12/09 11:38:23;;;;;;;16.85;9.18;;;0.10;99.90;;;;;;5068505;28;20009;-74
2022/12/09 11:41:00;;;;;;;20.05;9.43;;;0.10;99.90;;;;;;5067792;28;20289;-74
2022/12/09 11:43:38;;;;;;;18.90;8.05;;;0.00;99.90;;;;;;5058101;28;20340;-75
2022/12/09 11:46:30;;;;;;;17.60;7.75;;;0.00;99.90;;;;;;5055103;28;20224;-74
2022/12/09 11:49:01;;;;;;;16.02;8.48;;;-0.10;99.90;;;;;;5052988;28;20052;-75
2022/12/09 11:51:33;;;;;;;17.67;7.95;;;-0.10;99.90;;;;;;5055893;28;20031;-74
2022/12/09 11:54:22;;;;;;;13.70;5.97;;;-0.20;99.90;;;;;;5059046;28;20032;-74
2022/12/09 11:56:50;;;;;;;17.88;7.50;;;0.00;99.90;;;;;;5043845;28;20044;-74
2022/12/09 11:59:24;;;;;;;17.73;8.25;;;-0.10;99.90;;;;;;5061900;28;20089;-75
2022/12/09 12:02:04;;;;;;;16.00;7.20;;;-0.10;99.90;;;;;;5060178;28;20066;-74
2022/12/09 12:04:40;;;;;;;15.10;6.80;;;0.20;99.90;;;;;;5053713;28;20025;-75
2022/12/09 12:07:17;;;;;;;21.13;8.93;;;0.80;99.90;;;;;;5051331;28;20406;-75
2022/12/09 12:09:53;;;;;;;18.73;7.70;;;0.20;99.90;;;;;;5053391;28;20025;-75
2022/12/09 12:12:45;;;;;;;22.63;10.23;;;0.40;99.90;;;;;;5054695;28;20032;-75
2022/12/09 12:15:45;;;;;;;17.55;8.82;;;0.50;99.90;;;;;;5047777;28;20094;-75
2022/12/09 12:18:20;;;;;;;14.93;7.15;;;0.60;99.90;;;;;;5028186;28;20025;-75
2022/12/09 12:21:04;;;;;;;12.98;6.88;;;0.80;99.90;;;;;;5052591;28;20021;-75
2022/12/09 12:23:54;;;;;;;17.55;9.05;;;0.60;99.90;;;;;;5053649;28;20037;-76
2022/12/09 12:26:29;;;;;;;11.10;5.47;;;1.10;99.90;;;;;;5046688;28;20099;-75
2022/12/09 12:29:11;;;;;;;13.50;6.45;;;0.80;99.90;;;;;;5054250;28;20037;-76
2022/12/09 12:32:05;;;;;;;12.95;6.45;;;0.90;99.90;;;;;;5047742;28;20032;-76
2022/12/09 12:34:55;;;;;;;14.15;7.40;;;1.10;99.90;;;;;;5046091;28;20025;-75
2022/12/09 12:37:45;;;;;;;15.32;7.05;;;1.20;99.90;;;;;;5043844;28;20048;-76
2022/12/09 12:40:34;;;;;;;11.85;5.55;;;1.20;99.90;;;;;;5045118;28;20108;-75
2022/12/09 12:46:16;;;;;;;15.70;5.93;;;1.00;99.90;;;;;;5044912;28;20052;-76
2022/12/09 12:49:12;;;;;;;12.00;6.88;;;3.30;99.90;;;;;;5045235;28;20045;-76
2022/12/09 12:51:51;;;;;;;13.77;6.57;;;1.00;99.90;;;;;;5045077;28;20025;-76
2022/12/09 12:54:43;;;;;;;14.68;6.68;;;1.00;99.90;;;;;;5047696;28;20040;-76